Time;durP1;ratioP1;P1;durP2;ratioP2;P2;SDS_P1;SDS_P2;PMS_P1;PMS_P2;Temp;Humidity;BMP_temperature;BMP_pressure;BME280_temperature;BME280_humidity;BME280_pressure;Samples;Min_cycle;Max_cycle;Signal;HPM_P1;HPM_P2
2022/05/17 00:02:07;;;;;;;4.33;1.90;;;;;;;17.05;100.00;101455.17;1880732;75;21064;-74
2022/05/17 00:04:35;;;;;;;7.45;2.47;;;;;;;16.97;100.00;101454.37;1880428;75;21109;-74
2022/05/17 00:07:04;;;;;;;5.12;2.17;;;;;;;16.94;100.00;101468.68;1881243;74;21102;-74
2022/05/17 00:09:33;;;;;;;6.87;2.42;;;;;;;17.03;100.00;101473.33;1848747;76;21175;-74
2022/05/17 00:12:00;;;;;;;5.35;2.12;;;;;;;17.03;100.00;101486.31;1858428;76;21014;-74
2022/05/17 00:14:28;;;;;;;5.55;2.40;;;;;;;17.07;100.00;101495.40;1848808;76;21163;-74
2022/05/17 00:16:56;;;;;;;4.25;2.08;;;;;;;16.94;100.00;101492.91;1884500;76;21561;-74
2022/05/17 00:19:23;;;;;;;5.92;2.33;;;;;;;16.93;100.00;101504.61;1849015;76;21143;-74
2022/05/17 00:21:51;;;;;;;5.30;2.40;;;;;;;16.93;100.00;101513.27;1849021;76;21552;-74
2022/05/17 00:24:21;;;;;;;8.15;2.85;;;;;;;16.92;100.00;101517.17;1848545;76;21086;-74
2022/05/17 00:26:48;;;;;;;6.80;2.80;;;;;;;16.88;100.00;101535.36;1852587;76;21460;-74
2022/05/17 00:29:16;;;;;;;4.40;2.55;;;;;;;16.91;100.00;101547.44;1880795;74;21136;-74
2022/05/17 00:31:43;;;;;;;6.95;2.22;;;;;;;16.94;100.00;101559.52;1880297;75;21146;-74
2022/05/17 00:34:11;;;;;;;6.62;2.20;;;;;;;16.88;100.00;101570.83;1880207;75;21148;-74
2022/05/17 00:36:38;;;;;;;4.62;2.22;;;;;;;16.93;100.00;101576.86;1880624;75;21119;-75
2022/05/17 00:39:06;;;;;;;5.35;2.42;;;;;;;16.96;100.00;101586.34;1880266;76;21581;-74
2022/05/17 00:41:33;;;;;;;4.40;2.70;;;;;;;16.94;100.00;101581.59;1874361;75;21041;-74
2022/05/17 00:46:58;;;;;;;7.55;2.85;;;;;;;16.88;100.00;101587.27;1848881;76;21139;-74
2022/05/17 00:49:29;;;;;;;5.92;2.75;;;;;;;16.83;100.00;101594.67;1848412;76;21044;-74
2022/05/17 00:51:59;;;;;;;4.20;2.87;;;;;;;16.83;100.00;101604.62;1859050;75;21107;-74
2022/05/17 00:54:28;;;;;;;3.77;2.77;;;;;;;16.75;100.00;101607.72;1859148;75;21062;-74
2022/05/17 00:57:01;;;;;;;5.03;2.72;;;;;;;16.66;100.00;101620.33;1880585;75;21544;-74
2022/05/17 00:59:29;;;;;;;4.67;3.00;;;;;;;16.74;100.00;101639.71;1880461;76;21031;-74
2022/05/17 01:01:57;;;;;;;4.42;2.90;;;;;;;16.72;100.00;101657.05;1880776;75;21135;-74
2022/05/17 01:04:25;;;;;;;8.05;2.98;;;;;;;16.87;100.00;101666.02;1872368;76;21150;-74
2022/05/17 01:06:59;;;;;;;7.03;2.70;;;;;;;16.86;100.00;101671.21;1848519;76;21189;-74
2022/05/17 01:09:26;;;;;;;8.10;2.87;;;;;;;16.83;100.00;101677.72;1848715;76;21069;-74
2022/05/17 01:11:54;;;;;;;10.05;2.72;;;;;;;16.76;100.00;101684.27;1864683;75;21028;-74
2022/05/17 01:17:08;;;;;;;5.28;3.02;;;;;;;16.84;100.00;101688.09;1848424;76;21584;-74
2022/05/17 01:19:37;;;;;;;3.98;2.52;;;;;;;16.81;100.00;101687.27;1848364;76;21065;-74
2022/05/17 01:22:05;;;;;;;4.97;2.77;;;;;;;16.71;100.00;101682.12;1848920;76;21037;-74
2022/05/17 01:24:33;;;;;;;5.70;2.95;;;;;;;16.64;100.00;101681.30;1848349;76;21084;-74
2022/05/17 01:27:08;;;;;;;5.05;2.58;;;;;;;16.60;100.00;101690.41;1848855;76;21053;-74
2022/05/17 01:29:41;;;;;;;6.83;2.80;;;;;;;16.50;100.00;101682.69;1848250;74;21160;-74
2022/05/17 01:32:09;;;;;;;7.95;3.27;;;;;;;16.44;100.00;101691.82;1848743;76;21107;-73
2022/05/17 01:34:39;;;;;;;10.05;2.85;;;;;;;16.51;100.00;101703.86;1848987;76;21080;-74
2022/05/17 01:37:06;;;;;;;5.87;3.70;;;;;;;16.56;100.00;101703.84;1874685;75;21165;-74
2022/05/17 01:39:35;;;;;;;5.87;2.80;;;;;;;16.46;100.00;101698.27;1849116;76;21048;-74
2022/05/17 01:42:03;;;;;;;7.17;2.90;;;;;;;16.42;100.00;101701.75;1848904;76;21072;-73
2022/05/17 01:44:31;;;;;;;4.12;2.55;;;;;;;16.38;100.00;101699.62;1849061;76;21084;-73
2022/05/17 01:46:59;;;;;;;5.97;2.60;;;;;;;16.31;100.00;101709.17;1848550;76;21216;-73
2022/05/17 01:49:27;;;;;;;4.40;3.27;;;;;;;16.32;100.00;101702.23;1849264;76;21170;-74
2022/05/17 01:51:54;;;;;;;4.90;2.30;;;;;;;16.25;100.00;101712.65;1848817;76;21107;-74
2022/05/17 01:54:21;;;;;;;5.25;2.75;;;;;;;16.23;100.00;101706.59;1848629;76;21072;-74
2022/05/17 01:56:49;;;;;;;4.33;2.35;;;;;;;16.25;100.00;101709.18;1833581;77;21054;-74
2022/05/17 01:59:17;;;;;;;4.28;2.40;;;;;;;16.27;100.00;101702.70;1848074;77;21106;-73
2022/05/17 02:01:44;;;;;;;4.78;2.47;;;;;;;16.18;100.00;101704.47;1880900;74;21128;-74
2022/05/17 02:04:13;;;;;;;4.08;2.40;;;;;;;16.12;100.00;101704.51;1880233;75;21109;-74
2022/05/17 02:06:42;;;;;;;5.72;2.62;;;;;;;16.18;100.00;101721.73;1881038;75;21019;-74
2022/05/17 02:09:09;;;;;;;4.00;2.55;;;;;;;16.12;100.00;101726.54;1848652;76;21063;-74
2022/05/17 02:11:37;;;;;;;6.28;2.20;;;;;;;16.08;100.00;101717.89;1881592;76;21011;-74
2022/05/17 02:14:05;;;;;;;6.62;2.77;;;;;;;15.99;100.00;101712.30;1881397;75;21051;-74
2022/05/17 02:16:35;;;;;;;5.10;2.45;;;;;;;15.98;100.00;101711.04;1881687;76;21058;-74
2022/05/17 02:19:02;;;;;;;6.17;2.98;;;;;;;15.94;100.00;101706.67;1848798;76;21225;-74
2022/05/17 02:21:30;;;;;;;6.22;3.10;;;;;;;15.90;100.00;101695.46;1848899;76;21032;-74
2022/05/17 02:23:57;;;;;;;6.33;3.00;;;;;;;15.78;100.00;101683.42;1848975;76;21178;-74
2022/05/17 02:26:24;;;;;;;3.27;2.62;;;;;;;15.77;100.00;101685.56;1848878;76;21126;-74
2022/05/17 02:28:52;;;;;;;4.70;3.00;;;;;;;15.75;100.00;101682.13;1849179;76;21118;-74
2022/05/17 02:31:20;;;;;;;5.55;2.83;;;;;;;15.71;100.00;101676.53;1849059;76;21100;-74
2022/05/17 02:33:48;;;;;;;7.25;3.62;;;;;;;15.71;100.00;101670.05;1856508;76;21190;-74
2022/05/17 02:36:16;;;;;;;5.45;2.83;;;;;;;15.66;100.00;101667.88;1816822;77;21123;-74
2022/05/17 02:38:43;;;;;;;4.42;2.98;;;;;;;15.65;100.00;101667.05;1817253;77;21068;-74
2022/05/17 02:41:12;;;;;;;6.42;2.62;;;;;;;15.62;100.00;101665.75;1874881;76;21204;-73
2022/05/17 02:43:39;;;;;;;4.65;3.25;;;;;;;15.60;100.00;101665.75;1849551;76;21110;-73
2022/05/17 02:46:07;;;;;;;8.30;3.85;;;;;;;15.71;100.00;101674.78;1823553;75;21178;-73
2022/05/17 02:48:35;;;;;;;4.85;2.60;;;;;;;15.67;100.00;101674.36;1856304;77;21485;-73
2022/05/17 02:51:11;;;;;;;3.50;2.40;;;;;;;15.64;100.00;101687.77;1849336;76;21080;-73
2022/05/17 02:53:39;;;;;;;4.45;2.77;;;;;;;15.75;100.00;101696.38;1848770;76;21602;-73
2022/05/17 02:56:07;;;;;;;6.25;2.67;;;;;;;15.76;100.00;101707.59;1849327;76;21123;-73
2022/05/17 02:58:35;;;;;;;5.08;2.70;;;;;;;15.86;100.00;101719.66;1849248;76;21098;-73
2022/05/17 03:01:03;;;;;;;4.83;2.42;;;;;;;15.87;100.00;101726.56;1849336;76;21048;-73
2022/05/17 03:03:31;;;;;;;5.20;2.35;;;;;;;15.85;100.00;101739.97;1849207;76;21118;-73
2022/05/17 03:05:58;;;;;;;4.60;2.55;;;;;;;15.95;100.00;101744.28;1827531;78;21209;-73
2022/05/17 03:08:26;;;;;;;4.85;2.37;;;;;;;15.93;100.00;101740.81;1849389;76;21579;-73
2022/05/17 03:10:53;;;;;;;3.65;2.35;;;;;;;15.94;100.00;101744.25;1849167;76;21044;-73
2022/05/17 03:13:20;;;;;;;3.25;2.27;;;;;;;16.11;100.00;101755.48;1819251;77;21157;-73
2022/05/17 03:15:52;;;;;;;3.37;2.15;;;;;;;16.07;100.00;101754.19;1848234;76;22337;-73
2022/05/17 03:18:20;;;;;;;5.97;2.55;;;;;;;16.10;100.00;101747.70;1849266;76;21048;-73
2022/05/17 03:20:49;;;;;;;4.83;2.40;;;;;;;16.05;100.00;101740.38;1849087;76;21138;-73
2022/05/17 03:23:17;;;;;;;4.58;3.15;;;;;;;16.01;100.00;101747.29;1849105;76;21049;-73
2022/05/17 03:25:44;;;;;;;3.77;2.50;;;;;;;15.98;100.00;101748.16;1849452;76;21167;-73
2022/05/17 03:28:13;;;;;;;5.20;2.67;;;;;;;16.11;100.00;101754.61;1848838;76;21048;-73
2022/05/17 03:30:41;;;;;;;4.78;3.05;;;;;;;16.07;100.00;101743.82;1849302;76;21288;-73
2022/05/17 03:33:09;;;;;;;3.75;2.58;;;;;;;15.99;100.00;101743.86;1849229;76;21115;-73
2022/05/17 03:35:37;;;;;;;3.95;2.62;;;;;;;16.03;100.00;101753.77;1835733;78;21171;-73
2022/05/17 03:38:05;;;;;;;5.55;2.65;;;;;;;16.02;100.00;101759.41;1846673;76;21614;-73
2022/05/17 03:40:32;;;;;;;3.25;2.12;;;;;;;16.11;100.00;101771.45;1880824;74;21033;-73
2022/05/17 03:43:00;;;;;;;3.42;2.40;;;;;;;16.12;100.00;101758.95;1853612;75;21101;-73
2022/05/17 03:45:27;;;;;;;3.58;2.20;;;;;;;16.07;100.00;101750.30;1849175;76;21583;-73
2022/05/17 03:47:54;;;;;;;3.98;2.20;;;;;;;15.97;100.00;101747.75;1849131;76;21221;-73
2022/05/17 03:50:22;;;;;;;3.75;2.45;;;;;;;15.95;100.00;101744.28;1849505;76;21041;-73
2022/05/17 03:52:49;;;;;;;4.62;2.33;;;;;;;16.02;100.00;101742.98;1849341;76;21114;-73
2022/05/17 03:55:17;;;;;;;4.17;2.27;;;;;;;15.97;100.00;101736.50;1848758;76;21647;-73
2022/05/17 03:57:44;;;;;;;4.80;2.30;;;;;;;15.99;100.00;101721.83;1849251;76;21137;-73
2022/05/17 04:00:12;;;;;;;3.22;2.05;;;;;;;15.98;100.00;101710.58;1881279;75;21487;-73
2022/05/17 04:02:40;;;;;;;3.50;2.08;;;;;;;16.08;100.00;101713.13;1849402;76;21044;-73
2022/05/17 04:05:09;;;;;;;4.95;1.95;;;;;;;15.99;100.00;101698.05;1849248;76;21124;-73
2022/05/17 04:07:38;;;;;;;4.72;2.40;;;;;;;15.99;100.00;101687.67;1849168;76;21022;-73
2022/05/17 04:10:08;;;;;;;3.35;2.12;;;;;;;15.93;100.00;101685.52;1848719;76;21086;-73
2022/05/17 04:12:35;;;;;;;3.90;2.30;;;;;;;16.08;100.00;101680.73;1881503;74;21013;-73
2022/05/17 04:15:04;;;;;;;5.10;2.17;;;;;;;16.01;100.00;101669.53;1881967;75;21148;-73
2022/05/17 04:17:32;;;;;;;5.12;2.22;;;;;;;16.02;100.00;101654.85;1881517;76;21042;-73
2022/05/17 04:20:01;;;;;;;3.27;2.30;;;;;;;15.90;100.00;101649.23;1849491;76;21640;-73
2022/05/17 04:22:28;;;;;;;6.70;2.37;;;;;;;15.90;100.00;101641.47;1856666;77;21169;-73
2022/05/17 04:24:57;;;;;;;5.47;2.50;;;;;;;15.90;100.00;101631.97;1817307;77;21163;-73
2022/05/17 04:27:25;;;;;;;5.70;3.08;;;;;;;15.88;100.00;101624.66;1849470;76;21044;-73
2022/05/17 04:29:53;;;;;;;5.03;2.50;;;;;;;15.78;100.00;101624.25;1849232;76;21513;-73
2022/05/17 04:32:21;;;;;;;4.72;2.55;;;;;;;15.82;100.00;101628.55;1837081;76;21171;-73
2022/05/17 04:34:48;;;;;;;4.90;2.52;;;;;;;15.79;100.00;101630.73;1849282;77;21139;-73
2022/05/17 04:37:15;;;;;;;3.75;2.42;;;;;;;15.71;100.00;101635.08;1792135;78;21046;-73
2022/05/17 04:39:43;;;;;;;3.67;2.60;;;;;;;15.74;100.00;101641.55;1854361;74;21033;-73
2022/05/17 04:42:10;;;;;;;3.55;2.75;;;;;;;15.76;100.00;101638.92;1881288;75;21042;-73
2022/05/17 04:44:38;;;;;;;3.27;2.50;;;;;;;15.77;100.00;101638.92;1848741;76;21636;-74
2022/05/17 04:47:08;;;;;;;4.20;2.47;;;;;;;15.84;100.00;101633.28;1880578;74;21010;-73
2022/05/17 04:49:35;;;;;;;4.95;2.30;;;;;;;15.76;100.00;101624.67;1881018;74;21131;-73
2022/05/17 04:52:02;;;;;;;5.25;2.92;;;;;;;15.79;100.00;101631.15;1849375;76;21048;-73
2022/05/17 04:54:30;;;;;;;2.40;2.00;;;;;;;15.63;100.00;101626.47;1849370;76;21088;-73
2022/05/17 04:56:58;;;;;;;5.28;2.70;;;;;;;15.79;100.00;101627.27;1849220;76;21221;-73
2022/05/17 04:59:26;;;;;;;5.80;2.70;;;;;;;15.79;100.00;101616.90;1849389;76;21134;-73
2022/05/17 05:01:53;;;;;;;5.45;2.30;;;;;;;15.79;100.00;101612.59;1848408;78;21056;-73
2022/05/17 05:04:20;;;;;;;5.92;2.30;;;;;;;15.74;100.00;101611.30;1849355;76;21663;-74
2022/05/17 05:06:48;;;;;;;4.35;2.45;;;;;;;15.83;100.00;101610.84;1849362;76;21072;-73
2022/05/17 05:09:15;;;;;;;4.20;2.25;;;;;;;15.83;100.00;101600.05;1849351;76;21123;-73
2022/05/17 05:11:43;;;;;;;3.08;2.20;;;;;;;15.92;100.00;101591.38;1849411;76;21046;-73
2022/05/17 05:14:10;;;;;;;4.45;2.50;;;;;;;15.97;100.00;101587.48;1884440;75;21077;-73
2022/05/17 05:16:39;;;;;;;4.40;2.02;;;;;;;16.06;100.00;101565.84;1860752;76;21038;-73
2022/05/17 05:19:06;;;;;;;2.70;2.00;;;;;;;16.10;100.00;101559.77;1884326;74;21053;-73
2022/05/17 05:21:33;;;;;;;3.62;1.90;;;;;;;16.11;100.00;101544.63;1848791;76;21042;-73
2022/05/17 05:24:04;;;;;;;3.37;2.08;;;;;;;16.26;100.00;101546.28;1880475;75;22583;-73
2022/05/17 05:26:30;;;;;;;4.08;2.55;;;;;;;16.31;100.00;101535.86;1879364;74;21128;-73
2022/05/17 05:28:57;;;;;;;3.92;1.85;;;;;;;16.28;100.00;101520.31;1851051;76;21828;-73
2022/05/17 05:31:25;;;;;;;4.70;2.00;;;;;;;16.25;100.00;101500.45;1895057;74;21077;-73
2022/05/17 05:33:52;;;;;;;2.87;1.80;;;;;;;16.28;100.00;101491.79;1845899;77;21067;-72
2022/05/17 05:36:20;;;;;;;4.25;1.80;;;;;;;16.27;100.00;101478.41;1868707;77;21661;-72
2022/05/17 05:38:47;;;;;;;5.30;2.00;;;;;;;16.40;100.00;101469.67;1833901;78;21022;-73
2022/05/17 05:41:15;;;;;;;4.55;2.47;;;;;;;16.45;100.00;101459.23;1833879;76;21062;-73
2022/05/17 05:43:45;;;;;;;4.17;2.33;;;;;;;16.38;100.00;101435.97;1833277;76;21048;-72
2022/05/17 05:46:13;;;;;;;4.10;2.45;;;;;;;16.38;100.00;101429.48;1832250;75;21135;-73
2022/05/17 05:48:40;;;;;;;4.03;2.12;;;;;;;16.35;100.00;101423.45;1809452;78;21482;-72
2022/05/17 05:51:08;;;;;;;5.28;2.12;;;;;;;16.27;100.00;101416.19;1832642;77;21193;-72
2022/05/17 05:53:35;;;;;;;4.20;2.35;;;;;;;16.31;100.00;101401.89;1776440;79;21125;-72
2022/05/17 05:56:02;;;;;;;5.12;3.22;;;;;;;16.19;100.00;101387.30;1829154;77;21187;-72
2022/05/17 05:58:35;;;;;;;7.97;2.42;;;;;;;16.30;100.00;101380.73;1827683;77;21092;-72
2022/05/17 06:01:02;;;;;;;3.58;2.10;;;;;;;16.25;100.00;101365.64;1836566;76;21510;-72
2022/05/17 06:03:30;;;;;;;3.65;1.98;;;;;;;16.36;100.00;101355.14;1847722;77;21045;-73
2022/05/17 06:05:57;;;;;;;4.03;2.22;;;;;;;16.33;100.00;101335.76;1833626;76;21092;-72
2022/05/17 06:08:25;;;;;;;5.70;2.83;;;;;;;16.45;100.00;101335.62;1833843;77;21053;-72
2022/05/17 06:10:52;;;;;;;6.22;2.65;;;;;;;16.36;100.00;101323.60;1807025;78;21052;-72
2022/05/17 06:13:20;;;;;;;3.72;2.10;;;;;;;16.57;100.00;101323.39;1797282;78;21108;-72
2022/05/17 06:15:48;;;;;;;9.00;3.20;;;;;;;16.71;100.00;101316.27;1832084;77;21179;-72
2022/05/17 06:18:16;;;;;;;3.65;2.70;;;;;;;16.61;100.00;101299.13;1833773;78;21065;-72
2022/05/17 06:20:46;;;;;;;5.62;2.33;;;;;;;16.73;100.00;101292.48;1833996;76;21123;-72
2022/05/17 06:23:13;;;;;;;3.37;2.35;;;;;;;16.95;100.00;101283.08;1833898;77;21119;-72
2022/05/17 06:25:41;;;;;;;3.87;2.30;;;;;;;16.99;100.00;101273.53;1821706;78;21114;-73
2022/05/17 06:28:08;;;;;;;4.17;2.60;;;;;;;17.08;100.00;101266.93;1815646;77;21144;-74
2022/05/17 06:30:36;;;;;;;4.10;2.10;;;;;;;17.38;100.00;101261.28;1841006;77;21103;-74
2022/05/17 06:33:03;;;;;;;5.47;2.25;;;;;;;17.51;100.00;101252.39;1870515;76;21166;-75
2022/05/17 06:35:30;;;;;;;7.65;2.67;;;;;;;17.73;100.00;101240.33;1880449;74;21147;-75
2022/05/17 06:37:58;;;;;;;7.65;2.50;;;;;;;17.87;100.00;101223.18;1853316;76;21041;-76
2022/05/17 06:40:25;;;;;;;5.58;2.45;;;;;;;18.05;100.00;101209.39;1880621;76;21053;-76
2022/05/17 06:42:53;;;;;;;6.37;2.40;;;;;;;18.28;100.00;101197.70;1851893;76;21048;-75
2022/05/17 06:45:20;;;;;;;4.62;1.95;;;;;;;18.68;100.00;101186.41;1848330;76;21190;-75
2022/05/17 06:47:48;;;;;;;6.80;2.60;;;;;;;18.82;100.00;101173.50;1848478;76;21009;-75
2022/05/17 06:50:15;;;;;;;4.47;3.00;;;;;;;19.25;100.00;101166.85;1848307;76;21047;-76
2022/05/17 06:52:44;;;;;;;3.02;1.85;;;;;;;19.42;100.00;101151.61;1848640;76;21017;-75
2022/05/17 06:55:13;;;;;;;3.15;1.95;;;;;;;19.85;100.00;101153.94;1848500;76;21182;-75
2022/05/17 06:57:41;;;;;;;3.95;2.35;;;;;;;20.09;100.00;101132.84;1848826;76;21244;-75
2022/05/17 07:00:14;;;;;;;4.55;2.00;;;;;;;20.22;100.00;101120.73;1848578;76;21615;-75
2022/05/17 07:02:42;;;;;;;4.85;2.20;;;;;;;19.82;100.00;101114.47;1848639;76;21190;-76
2022/05/17 07:05:11;;;;;;;4.12;1.98;;;;;;;19.44;100.00;101107.28;1848088;76;21660;-76
2022/05/17 07:07:39;;;;;;;4.70;2.45;;;;;;;19.72;100.00;101103.45;1847280;76;21185;-76
2022/05/17 07:15:41;;;;;;;7.28;2.15;;;;;;;20.68;100.00;101093.61;1843593;76;21126;-75
2022/05/17 07:18:09;;;;;;;4.53;2.02;;;;;;;21.18;100.00;101085.41;1820302;77;22446;-75
2022/05/17 07:20:36;;;;;;;3.45;1.65;;;;;;;21.18;100.00;101085.41;1847374;76;21193;-75
2022/05/17 07:23:04;;;;;;;6.60;1.67;;;;;;;20.94;100.00;101080.14;1816539;77;21028;-75
2022/05/17 07:25:33;;;;;;;5.50;2.17;;;;;;;20.92;100.00;101077.19;1878083;75;21081;-75
2022/05/17 07:28:01;;;;;;;5.42;2.08;;;;;;;20.88;100.00;101081.67;1880218;75;21036;-75
2022/05/17 07:30:29;;;;;;;7.17;2.25;;;;;;;20.88;100.00;101081.67;1870220;75;21510;-75
2022/05/17 07:32:57;;;;;;;3.70;1.92;;;;;;;21.26;100.00;101074.23;1851065;74;21076;-75
2022/05/17 07:35:25;;;;;;;7.47;2.98;;;;;;;21.42;100.00;101056.69;1848036;77;21092;-74
2022/05/17 07:37:52;;;;;;;9.78;3.02;;;;;;;21.47;100.00;101060.01;1849040;76;21127;-75
2022/05/17 07:40:20;;;;;;;3.47;2.77;;;;;;;21.40;100.00;101059.83;1848690;76;21100;-75
2022/05/17 07:42:48;;;;;;;5.28;3.22;;;;;;;21.23;100.00;101073.06;1849253;76;21662;-75
2022/05/17 07:45:17;;;;;;;6.65;2.70;;;;;;;20.99;100.00;101066.49;1848936;76;21092;-75
2022/05/17 07:47:44;;;;;;;5.28;3.25;;;;;;;21.80;100.00;101061.89;1849144;76;21591;-75
2022/05/17 07:50:12;;;;;;;4.20;3.17;;;;;;;22.15;100.00;101053.95;1849097;76;21088;-75
2022/05/17 07:52:41;;;;;;;7.40;3.10;;;;;;;21.87;100.00;101055.03;1849111;76;21595;-75
2022/05/17 07:55:10;;;;;;;8.63;3.20;;;;;;;21.78;100.00;101051.48;1881002;74;21177;-75
2022/05/17 07:57:39;;;;;;;5.22;3.15;;;;;;;21.82;100.00;101046.53;1848684;76;21079;-75
2022/05/17 08:00:08;;;;;;;6.55;2.90;;;;;;;22.10;100.00;101043.27;1849036;76;21052;-75
2022/05/17 08:02:35;;;;;;;50.20;8.38;;;;;;;22.30;100.00;101041.99;1848996;76;21021;-75
2022/05/17 08:05:03;;;;;;;6.47;3.40;;;;;;;22.46;100.00;101040.05;1856357;76;21174;-74
2022/05/17 08:07:30;;;;;;;5.78;2.98;;;;;;;21.89;100.00;101032.30;1848583;76;21056;-74
2022/05/17 08:09:58;;;;;;;8.28;3.22;;;;;;;21.98;100.00;101022.39;1830321;76;21125;-75
2022/05/17 08:12:25;;;;;;;6.05;2.95;;;;;;;22.14;100.00;101027.39;1848319;76;21558;-75
2022/05/17 08:14:53;;;;;;;6.20;2.67;;;;;;;22.50;100.00;101030.33;1850958;76;21076;-74
2022/05/17 08:17:21;;;;;;;5.08;2.80;;;;;;;22.49;100.00;101032.52;1851010;77;21132;-75
2022/05/17 08:19:49;;;;;;;8.55;3.15;;;;;;;22.83;100.00;101030.27;1848216;76;21086;-75
2022/05/17 08:22:16;;;;;;;6.37;3.17;;;;;;;22.98;100.00;101033.53;1882189;75;21034;-75
2022/05/17 08:27:32;;;;;;;7.50;2.90;;;;;;;23.11;100.00;101029.91;1849268;76;21127;-75
2022/05/17 08:30:00;;;;;;;5.65;3.15;;;;;;;22.78;100.00;101024.77;1848637;76;21183;-75
2022/05/17 08:35:13;;;;;;;5.72;2.70;;;;;;;22.70;100.00;101031.28;1847964;76;21538;-75
2022/05/17 08:37:41;;;;;;;6.65;3.25;;;;;;;22.23;100.00;101030.55;1817394;77;21193;-75
2022/05/17 08:40:11;;;;;;;16.10;3.33;;;;;;;22.18;100.00;101033.81;1817318;77;21107;-75
2022/05/17 08:42:53;;;;;;;6.20;3.47;;;;;;;22.03;100.00;101034.81;1817357;77;21060;-75
2022/05/17 08:45:22;;;;;;;6.55;3.05;;;;;;;22.11;100.00;101028.81;1849327;76;21080;-74
2022/05/17 08:47:52;;;;;;;8.65;4.03;;;;;;;21.79;100.00;101033.56;1849201;76;21128;-75
2022/05/17 08:50:23;;;;;;;5.87;2.90;;;;;;;21.64;100.00;101031.89;1849528;76;21127;-74
2022/05/17 08:52:51;;;;;;;7.55;3.20;;;;;;;21.49;100.00;101022.88;1848722;76;21115;-75
2022/05/17 08:55:40;;;;;;;7.28;3.22;;;;;;;21.66;100.00;101020.08;1848797;76;21084;-74
2022/05/17 08:58:23;;;;;;;7.97;3.40;;;;;;;21.77;100.00;101023.16;1849366;76;21151;-74
2022/05/17 09:01:00;;;;;;;12.05;3.33;;;;;;;21.56;100.00;101021.36;1823477;78;21034;-74
2022/05/17 09:03:39;;;;;;;7.72;3.52;;;;;;;21.62;100.00;101023.28;1848725;76;21197;-74
2022/05/17 09:06:22;;;;;;;7.50;3.10;;;;;;;21.62;100.00;101022.41;1849342;76;21080;-74
2022/05/17 09:09:07;;;;;;;7.08;3.35;;;;;;;21.54;100.00;101024.03;1849289;76;21037;-74
2022/05/17 09:11:46;;;;;;;9.03;3.42;;;;;;;21.77;100.00;101014.48;1848900;76;21109;-74
2022/05/17 09:14:19;;;;;;;10.18;3.75;;;;;;;21.85;100.00;101011.55;1804592;77;21225;-74
2022/05/17 09:16:50;;;;;;;8.43;3.60;;;;;;;21.67;100.00;101024.42;1808200;79;21085;-74
2022/05/17 09:19:18;;;;;;;109.10;15.68;;;;;;;21.63;100.00;101021.05;1847660;76;21101;-74
2022/05/17 09:21:53;;;;;;;9.58;3.30;;;;;;;21.50;100.00;101019.83;1880854;74;21029;-74
2022/05/17 09:24:19;;;;;;;8.23;2.85;;;;;;;21.36;100.00;101010.73;1879279;75;21162;-74
2022/05/17 09:26:55;;;;;;;317.15;46.33;;;;;;;21.53;100.00;101011.88;1880435;75;21178;-74
2022/05/17 09:29:42;;;;;;;5.78;3.62;;;;;;;21.69;100.00;101009.50;1815690;77;21123;-74
2022/05/17 09:32:12;;;;;;;5.35;3.27;;;;;;;21.89;100.00;101008.77;1849221;76;21170;-74
2022/05/17 09:34:46;;;;;;;7.15;3.40;;;;;;;22.00;100.00;101004.84;1849216;78;21092;-74
2022/05/17 09:37:17;;;;;;;8.28;3.33;;;;;;;22.08;100.00;101016.33;1848480;76;21130;-74
2022/05/17 09:39:53;;;;;;;7.53;3.72;;;;;;;21.98;100.00;101020.60;1848543;76;21049;-74
2022/05/17 09:42:38;;;;;;;8.60;3.30;;;;;;;21.61;100.00;101009.81;1848705;78;21049;-74
2022/05/17 09:45:08;;;;;;;7.50;3.35;;;;;;;21.48;100.00;101016.41;1821970;76;21053;-74
2022/05/17 09:47:38;;;;;;;9.88;3.20;;;;;;;21.62;100.00;101010.64;1858325;77;21029;-74
2022/05/17 09:53:07;;;;;;;5.75;2.72;;;;;;;23.29;100.00;101007.70;1848796;78;21085;-74
2022/05/17 09:55:35;;;;;;;5.47;3.00;;;;;;;22.80;100.00;101015.54;1848994;76;21097;-74
2022/05/17 09:58:06;;;;;;;10.38;3.62;;;;;;;22.39;100.00;101005.91;1817565;77;21050;-74
2022/05/17 10:00:40;;;;;;;9.30;3.90;;;;;;;22.37;100.00;101004.66;1848276;76;21049;-75
2022/05/17 10:03:17;;;;;;;6.95;4.40;;;;;;;22.79;100.00;101005.55;1851325;77;21084;-74
2022/05/17 10:05:47;;;;;;;8.28;4.05;;;;;;;23.03;100.00;100990.10;1860069;75;21082;-74
2022/05/17 10:08:20;;;;;;;6.42;3.30;;;;;;;23.22;100.00;100991.90;1860820;77;21062;-75
2022/05/17 10:10:49;;;;;;;7.58;3.10;;;;;;;23.95;100.00;100998.98;1850003;75;21161;-75
2022/05/17 10:13:29;;;;;;;6.37;3.12;;;;;;;23.94;100.00;101006.48;1848228;76;21056;-74
2022/05/17 10:15:59;;;;;;;10.88;3.75;;;;;;;24.06;100.00;101019.47;1828764;76;21100;-75
2022/05/17 10:18:39;;;;;;;6.80;3.17;;;;;;;24.21;100.00;101025.77;1848293;76;21118;-75
2022/05/17 10:21:15;;;;;;;5.10;2.77;;;;;;;23.86;100.00;101033.55;1848840;76;21138;-75
2022/05/17 10:24:07;;;;;;;7.50;3.40;;;;;;;23.97;100.00;101028.64;1847210;76;21022;-75
2022/05/17 10:26:43;;;;;;;10.70;3.95;;;;;;;23.62;100.00;101031.16;1847916;76;21443;-75
2022/05/17 10:29:29;;;;;;;8.18;3.40;;;;;;;23.12;100.00;101022.91;1848879;76;21112;-74
2022/05/17 10:32:04;;;;;;;8.13;3.37;;;;;;;23.49;100.00;101025.19;1840545;77;21094;-75
2022/05/17 10:34:40;;;;;;;9.20;3.22;;;;;;;23.75;100.00;101006.08;1756507;78;21164;-76
2022/05/17 10:37:13;;;;;;;5.62;3.20;;;;;;;23.83;100.00;101009.17;1830342;77;21461;-75
2022/05/17 10:39:47;;;;;;;6.55;3.00;;;;;;;24.01;100.00;101011.81;1808963;77;21067;-75
2022/05/17 10:42:13;;;;;;;;;;;;;;;24.33;100.00;101015.96;1836614;76;21044;-75
2022/05/17 10:44:47;;;;;;;9.03;3.30;;;;;;;23.75;100.00;101012.63;1851211;76;20583;-75
2022/05/17 10:47:34;;;;;;;10.08;3.42;;;;;;;23.82;100.00;101022.36;1851392;76;21154;-75
2022/05/17 10:50:23;;;;;;;9.20;3.12;;;;;;;23.18;100.00;101010.83;1851141;76;21072;-75
2022/05/17 10:52:53;;;;;;;8.35;3.95;;;;;;;23.12;100.00;100996.22;1850104;76;21062;-75
2022/05/17 10:55:29;;;;;;;6.78;3.50;;;;;;;22.65;100.00;100992.19;1827566;76;21093;-75
2022/05/17 10:58:12;;;;;;;9.60;3.80;;;;;;;22.60;100.00;100989.75;1851409;76;21119;-75
2022/05/17 11:00:46;;;;;;;8.00;3.72;;;;;;;22.49;100.00;100991.95;1851699;76;21083;-75
2022/05/17 11:03:38;;;;;;;9.50;4.28;;;;;;;22.24;100.00;100991.67;1851481;76;21080;-75
2022/05/17 11:06:14;;;;;;;9.45;4.42;;;;;;;22.09;100.00;101007.56;1851276;76;21072;-75
2022/05/17 11:09:19;;;;;;;12.18;4.30;;;;;;;21.79;100.00;100996.95;1851486;76;21064;-75
2022/05/17 11:12:09;;;;;;;8.38;3.75;;;;;;;21.80;100.00;100985.58;1860761;76;21041;-75
2022/05/17 11:14:57;;;;;;;7.62;3.80;;;;;;;21.99;100.00;100971.31;1851412;76;21506;-75
2022/05/17 11:17:44;;;;;;;9.73;3.80;;;;;;;22.43;100.00;100966.43;1851298;76;21087;-75
2022/05/17 11:20:17;;;;;;;5.25;3.22;;;;;;;22.88;100.00;100958.42;1854187;76;21083;-75
2022/05/17 11:23:06;;;;;;;8.30;3.27;;;;;;;22.93;100.00;100970.02;1883320;75;21451;-75
2022/05/17 11:25:51;;;;;;;5.08;3.30;;;;;;;23.25;100.00;100972.08;1882616;76;21084;-75
2022/05/17 11:28:33;;;;;;;7.33;3.40;;;;;;;23.37;100.00;100962.84;1883160;75;21470;-75
2022/05/17 11:31:18;;;;;;;6.37;3.37;;;;;;;23.32;100.00;100969.56;1883208;75;21146;-75
2022/05/17 11:33:46;;;;;;;12.78;4.30;;;;;;;23.41;100.00;100977.05;1872514;76;21482;-75
2022/05/17 11:36:34;;;;;;;8.10;3.85;;;;;;;23.23;100.00;100981.80;1872001;75;21081;-75
2022/05/17 11:39:02;;;;;;;6.65;4.00;;;;;;;23.44;100.00;100976.88;1848986;76;21113;-75
2022/05/17 11:41:35;;;;;;;10.75;4.42;;;;;;;23.54;100.00;100982.55;1848467;76;21159;-75
2022/05/17 11:44:11;;;;;;;8.08;3.15;;;;;;;23.26;100.00;100977.25;1843281;76;21647;-75
2022/05/17 11:46:51;;;;;;;6.10;2.70;;;;;;;23.18;100.00;100983.31;1817568;78;21138;-73
2022/05/17 11:49:21;;;;;;;7.85;4.22;;;;;;;23.49;100.00;100986.30;1816715;77;21077;-75
2022/05/17 11:52:04;;;;;;;7.37;4.12;;;;;;;23.60;100.00;100984.51;1816712;77;21128;-75